createdAt,value
2023-03-06T00:03:28.180Z,1.93
2023-03-06T00:08:31.413Z,1.84
2023-03-06T00:13:40.615Z,1.72
2023-03-06T00:18:44.128Z,1.62
2023-03-06T00:23:46.484Z,1.54
2023-03-06T00:28:49.277Z,1.49
2023-03-06T00:33:53.633Z,1.47
2023-03-06T00:38:56.133Z,1.43
2023-03-06T00:44:04.052Z,1.37
2023-03-06T00:49:10.525Z,1.29
2023-03-06T00:54:33.327Z,1.27
2023-03-06T00:59:35.924Z,1.29
2023-03-06T01:04:39.035Z,1.23
2023-03-06T01:09:41.296Z,1.16
2023-03-06T01:14:43.371Z,1.14
2023-03-06T01:19:45.446Z,1.18
2023-03-06T01:24:49.295Z,1.18
2023-03-06T01:29:51.733Z,1.17
2023-03-06T01:34:54.277Z,1.21
2023-03-06T01:39:56.440Z,1.23
2023-03-06T01:45:08.504Z,1.22
2023-03-06T01:50:12.743Z,1.30
2023-03-06T01:55:21.294Z,1.36
2023-03-06T02:00:29.651Z,1.44
2023-03-06T02:05:32.591Z,1.51
2023-03-06T02:10:35.140Z,1.59
2023-03-06T02:15:39.847Z,1.66
2023-03-06T02:21:20.409Z,1.70
2023-03-06T02:26:23.083Z,1.73
2023-03-06T02:31:28.984Z,1.76
2023-03-06T02:36:35.894Z,1.73
2023-03-06T02:41:38.276Z,1.73
2023-03-06T02:46:41.077Z,1.69
2023-03-06T02:51:43.909Z,1.64
2023-03-06T02:56:48.125Z,1.63
2023-03-06T03:01:50.597Z,1.64
2023-03-06T03:06:53.521Z,1.60
2023-03-06T03:11:55.703Z,1.50
2023-03-06T03:17:01.195Z,1.44
2023-03-06T03:22:03.384Z,1.33
2023-03-06T03:27:06.580Z,1.24
2023-03-06T03:32:09.908Z,1.21
2023-03-06T03:37:14.095Z,1.12
2023-03-06T03:42:17.582Z,1.08
2023-03-06T03:47:20.101Z,1.07
2023-03-06T03:52:23.153Z,1.05
2023-03-06T03:57:26.460Z,1.06
2023-03-06T04:02:29.338Z,1.06
2023-03-06T04:07:46.860Z,1.06
2023-03-06T04:12:49.519Z,1.08
2023-03-06T04:17:51.951Z,1.10
2023-03-06T04:22:56.850Z,1.12
2023-03-06T04:27:59.238Z,1.10
2023-03-06T04:33:03.506Z,1.10
2023-03-06T04:38:06.008Z,1.11
2023-03-06T04:43:09.244Z,1.09
2023-03-06T04:48:18.868Z,1.01
2023-03-06T04:53:22.473Z,0.96
2023-03-06T04:58:25.876Z,0.99
2023-03-06T05:03:28.388Z,0.94
2023-03-06T05:08:31.139Z,0.93
2023-03-06T05:13:33.755Z,0.88
2023-03-06T05:18:37.940Z,0.85
2023-03-06T05:23:40.446Z,0.87
2023-03-06T05:28:42.849Z,0.90
2023-03-06T05:33:44.865Z,0.94
2023-03-06T05:38:46.830Z,1.04
2023-03-06T05:43:49.717Z,1.03
2023-03-06T05:48:56.118Z,1.11
2023-03-06T05:53:58.520Z,1.17
2023-03-06T05:59:00.760Z,1.24
2023-03-06T06:04:03.277Z,1.35
2023-03-06T06:09:05.110Z,1.46
2023-03-06T06:14:07.204Z,1.65
2023-03-06T06:19:09.682Z,1.85
2023-03-06T06:24:11.895Z,1.97
2023-03-06T06:29:13.880Z,2.12
2023-03-06T06:34:17.052Z,2.25
2023-03-06T06:39:21.434Z,2.41
2023-03-06T06:44:23.815Z,2.55
2023-03-06T06:49:25.914Z,2.79
2023-03-06T06:54:28.404Z,3.04
2023-03-06T06:59:30.305Z,3.23
2023-03-06T07:04:32.255Z,3.42
2023-03-06T07:09:34.504Z,3.64
2023-03-06T07:14:37.233Z,3.83
2023-03-06T07:19:39.663Z,3.99
2023-03-06T07:24:41.847Z,4.17
2023-03-06T07:29:44.681Z,4.38
2023-03-06T07:34:47.207Z,4.56
2023-03-06T07:39:49.128Z,4.68
2023-03-06T07:44:52.862Z,4.72
2023-03-06T07:49:57.264Z,4.75
2023-03-06T07:54:59.866Z,4.88
2023-03-06T08:00:03.333Z,5.03
2023-03-06T08:05:16.688Z,5.13
2023-03-06T08:10:18.785Z,5.34
2023-03-06T08:15:20.922Z,5.62
2023-03-06T08:20:23.302Z,5.86
2023-03-06T08:25:25.247Z,6.05
2023-03-06T08:30:27.081Z,6.23
2023-03-06T08:35:28.981Z,6.43
2023-03-06T08:40:31.213Z,6.61
2023-03-06T08:45:33.200Z,6.67
2023-03-06T08:50:35.600Z,6.71
2023-03-06T08:55:38.427Z,6.63
2023-03-06T09:00:40.646Z,6.59
2023-03-06T09:05:42.707Z,6.60
2023-03-06T09:10:48.380Z,6.58
2023-03-06T09:15:54.463Z,6.37
2023-03-06T09:20:56.954Z,6.31
2023-03-06T09:26:00.352Z,6.36
2023-03-06T09:31:07.851Z,6.27
2023-03-06T09:36:18.966Z,6.11
2023-03-06T09:41:34.286Z,6.06
2023-03-06T09:47:14.619Z,6.15
2023-03-06T09:52:36.586Z,6.12
2023-03-06T09:57:42.833Z,6.30
2023-03-06T10:02:50.688Z,6.57
2023-03-06T10:08:05.754Z,6.82
2023-03-06T10:13:28.272Z,7.06
2023-03-06T10:18:30.450Z,7.31
2023-03-06T10:23:46.924Z,7.58
2023-03-06T10:29:14.719Z,7.73
2023-03-06T10:34:22.172Z,7.75
2023-03-06T10:39:24.065Z,7.69
2023-03-06T10:44:25.981Z,7.63
2023-03-06T10:49:36.610Z,7.64
2023-03-06T10:54:44.378Z,7.67
2023-03-06T10:59:58.586Z,7.86
2023-03-06T11:05:02.092Z,7.87
2023-03-06T11:10:19.008Z,7.85
2023-03-06T11:15:22.556Z,7.86
2023-03-06T11:20:24.834Z,7.80
2023-03-06T11:25:34.503Z,7.67
2023-03-06T11:30:43.904Z,7.55
2023-03-06T11:35:52.115Z,7.43
2023-03-06T11:40:59.002Z,7.38
2023-03-06T11:46:25.229Z,7.46
2023-03-06T11:51:33.286Z,7.60
2023-03-06T11:56:38.391Z,7.70
2023-03-06T12:02:00.624Z,7.80
2023-03-06T12:07:21.548Z,7.94
2023-03-06T12:12:46.423Z,7.94
2023-03-06T12:18:16.370Z,7.73
2023-03-06T12:23:39.129Z,7.57
2023-03-06T12:29:07.411Z,7.43
2023-03-06T12:34:34.109Z,7.26
2023-03-06T12:40:13.744Z,7.12
2023-03-06T12:45:39.642Z,6.87
2023-03-06T12:50:45.623Z,6.57
2023-03-06T12:55:50.303Z,6.12
2023-03-06T13:01:16.775Z,5.89
2023-03-06T13:06:50.887Z,5.93
2023-03-06T13:12:05.985Z,6.04
2023-03-06T13:17:25.465Z,6.22
2023-03-06T13:22:29.712Z,6.68
2023-03-06T13:27:54.805Z,6.90
2023-03-06T13:32:57.424Z,6.98
2023-03-06T13:38:00.436Z,6.96
2023-03-06T13:43:08.088Z,6.93
2023-03-06T13:48:47.713Z,6.82
2023-03-06T13:54:26.281Z,6.89
2023-03-06T13:59:37.199Z,6.99
2023-03-06T14:04:47.428Z,6.90
2023-03-06T14:10:11.045Z,6.57
2023-03-06T14:15:31.727Z,6.36
2023-03-06T14:20:40.539Z,6.18
2023-03-06T14:25:45.312Z,6.25
2023-03-06T14:30:53.688Z,6.26
2023-03-06T14:35:59.679Z,6.15
2023-03-06T14:41:03.342Z,5.94
2023-03-06T14:46:06.960Z,5.84
2023-03-06T14:51:17.025Z,5.78
2023-03-06T14:56:25.831Z,5.74
2023-03-06T15:01:38.511Z,5.71
2023-03-06T15:06:43.725Z,5.70
2023-03-06T15:11:57.905Z,5.73
2023-03-06T15:17:18.429Z,5.68
2023-03-06T15:22:31.624Z,5.63
2023-03-06T15:27:33.719Z,5.51
2023-03-06T15:32:42.877Z,5.33
2023-03-06T15:37:44.974Z,5.14
2023-03-06T15:42:47.382Z,5.06
2023-03-06T15:47:52.095Z,5.13
2023-03-06T15:52:54.174Z,5.16
2023-03-06T15:58:02.244Z,5.20
2023-03-06T16:03:05.040Z,5.26
2023-03-06T16:08:07.526Z,5.24
2023-03-06T16:13:22.401Z,5.24
2023-03-06T16:18:25.115Z,5.12
2023-03-06T16:23:27.078Z,5.02
2023-03-06T16:28:29.049Z,4.96
2023-03-06T16:33:30.993Z,4.87
2023-03-06T16:38:32.937Z,4.79
2023-03-06T16:43:35.563Z,4.68
2023-03-06T16:48:37.799Z,4.58
2023-03-06T16:53:39.930Z,4.50
2023-03-06T16:58:45.490Z,4.45
2023-03-06T17:03:47.972Z,4.44
2023-03-06T17:08:51.057Z,4.48
2023-03-06T17:13:54.835Z,4.56
2023-03-06T17:18:58.288Z,4.50
2023-03-06T17:24:02.502Z,4.49
2023-03-06T17:29:07.009Z,4.51
2023-03-06T17:34:09.446Z,4.64
2023-03-06T17:39:12.949Z,4.73
2023-03-06T17:44:16.973Z,4.78
2023-03-06T17:49:21.645Z,4.82
2023-03-06T17:54:30.075Z,4.78
2023-03-06T17:59:36.297Z,4.71
2023-03-06T18:04:38.597Z,4.75
2023-03-06T18:09:42.878Z,4.81
2023-03-06T18:14:45.579Z,4.80
2023-03-06T18:19:48.182Z,4.83
2023-03-06T18:24:51.081Z,4.87
2023-03-06T18:29:55.550Z,4.92
2023-03-06T18:34:58.309Z,4.94
2023-03-06T18:40:00.835Z,4.91
2023-03-06T18:45:03.367Z,4.90
2023-03-06T18:50:06.832Z,4.84
2023-03-06T18:55:10.364Z,4.85
2023-03-06T19:00:22.472Z,4.76
2023-03-06T19:05:24.563Z,4.74
2023-03-06T19:10:27.064Z,4.69
2023-03-06T19:15:30.265Z,4.70
2023-03-06T19:20:33.020Z,4.63
2023-03-06T19:25:35.821Z,4.56
2023-03-06T19:30:40.925Z,4.43
2023-03-06T19:35:43.430Z,4.28
2023-03-06T19:40:51.967Z,4.11
2023-03-06T19:45:55.218Z,3.98
2023-03-06T19:50:57.196Z,3.88
2023-03-06T19:56:21.530Z,3.82
2023-03-06T20:01:26.696Z,3.72
2023-03-06T20:06:33.760Z,3.69
2023-03-06T20:11:35.977Z,3.63
2023-03-06T20:16:39.549Z,3.64
2023-03-06T20:21:42.712Z,3.56
2023-03-06T20:26:46.824Z,3.51
2023-03-06T20:31:49.454Z,3.45
2023-03-06T20:36:51.510Z,3.37
2023-03-06T20:41:54.975Z,3.23
2023-03-06T20:46:57.088Z,3.19
2023-03-06T20:51:59.156Z,3.09
2023-03-06T20:57:01.405Z,3.04
2023-03-06T21:02:04.142Z,3.01
2023-03-06T21:07:07.085Z,2.97
2023-03-06T21:12:09.413Z,2.89
2023-03-06T21:17:13.843Z,2.80
2023-03-06T21:22:17.189Z,2.77
2023-03-06T21:27:19.559Z,2.78
2023-03-06T21:32:21.716Z,2.77
2023-03-06T21:37:23.739Z,2.74
2023-03-06T21:42:26.253Z,2.70
2023-03-06T21:47:28.545Z,2.65
2023-03-06T21:52:30.574Z,2.65
2023-03-06T21:57:32.798Z,2.69
2023-03-06T22:02:35.552Z,2.69
2023-03-06T22:07:38.269Z,2.72
2023-03-06T22:12:41.989Z,2.70
2023-03-06T22:17:48.723Z,2.72
2023-03-06T22:22:51.005Z,2.71
2023-03-06T22:27:53.130Z,2.69
2023-03-06T22:32:57.118Z,2.71
2023-03-06T22:37:59.668Z,2.69
2023-03-06T22:43:02.646Z,2.67
2023-03-06T22:48:11.171Z,2.71
2023-03-06T22:53:20.957Z,2.69
2023-03-06T22:58:23.270Z,2.78
2023-03-06T23:03:25.189Z,2.80
2023-03-06T23:08:27.200Z,2.89
2023-03-06T23:13:29.118Z,2.94
2023-03-06T23:18:52.461Z,2.94
2023-03-06T23:24:12.958Z,2.99
2023-03-06T23:29:16.358Z,2.95
2023-03-06T23:34:18.401Z,3.01
2023-03-06T23:39:21.374Z,3.01
2023-03-06T23:44:23.242Z,3.07
2023-03-06T23:49:25.192Z,3.14
2023-03-06T23:54:27.179Z,3.15
2023-03-06T23:59:29.493Z,3.16
